CheckWX is a tool to help pilots better visualize weather data.  It is not intended as a substitute for an official pre-flight weather briefing.

09:14:22 UTC

PASC TAF
Deadhorse Airport
Deadhorse, Alaska, USA
TAF COR PASC 051121Z 0512/0612 10012KT P6SM VCSH SCT035 BKN050 OVC100 FM060400 25010KT 1 1/2SM -SN BKN050

Apr-5@
12:00 UTC

Apr-5 @ 12:00 UTC

Apr-6@
04:00 UTC

Apr-6 @ 04:00 UTC

TAF COR PASC 051121Z 0512/0612 10012KT P6SM VCSH SCT035 BKN050 OVC100

Expired

Wind
  • 100° at 12 KTS
Conditions
Area Showers
Cloud Levels
  • Scattered at 3,500' AGL
  • Broken at 5,000' AGL
  • Overcast at 10,000' AGL

Apr-6@
04:00 UTC

Apr-6 @ 04:00 UTC

Apr-6@
12:00 UTC

Apr-6 @ 12:00 UTC

FM060400 25010KT 1 1/2SM -SN BKN050

From

From Standard forecast or significant change

Wind
  • 250° at 10 KTS
Conditions
Light Snow
Cloud Levels
  • Broken at 5,000' AGL